Bayport, New York
Current Conditions -  °F | °C
As of 1:56 PM on Thursday 23 Oct 2014 (Local Time) from KISP Reporting Station
Light Rain Light Rain  
Wind Chill: 52°   Ceiling: 1500
Heat Index: 52°   Visibility: 1.5mi
Dew Point: 49°   Wind: 17mph
Humidity: 89%   Direction: 330°NNW
Pressure: 29.62"   Gusts: 26mph
Location:  40.74°N, 73.06°W
Report Text: KISP 231756Z 33015G23KT 1 1/2SM -RA BR FEW008 BKN015 OVC029 11/09 A2962 RMK AO2 SFC VIS 2 1/2 SLP030 P0001 60002 T01110094 10122 20111 58004
Loading
Personal Weather Stations






























Interactive Weather Map
Tropical Storm Tracking
New forecast layout! Learn more

10-Day Weather Forecast

Advertisements
Track Severe Weather on mobile